createdAt,value
2018-09-23T00:00:56.298Z,4.30
2018-09-23T00:03:24.173Z,4.80
2018-09-23T00:05:52.086Z,4.00
2018-09-23T00:08:19.935Z,5.37
2018-09-23T00:10:47.773Z,4.40
2018-09-23T00:13:15.636Z,6.47
2018-09-23T00:15:43.389Z,5.47
2018-09-23T00:18:11.263Z,6.40
2018-09-23T00:20:39.195Z,7.73
2018-09-23T00:23:06.883Z,7.50
2018-09-23T00:25:34.648Z,6.80
2018-09-23T00:28:02.515Z,7.50
2018-09-23T00:30:30.485Z,7.80
2018-09-23T00:32:58.301Z,8.00
2018-09-23T00:35:26.215Z,7.93
2018-09-23T00:37:54.119Z,7.60
2018-09-23T00:40:22.271Z,9.50
2018-09-23T00:42:50.137Z,9.57
2018-09-23T00:45:18.225Z,8.40
2018-09-23T00:47:46.169Z,10.00
2018-09-23T00:50:14.285Z,8.40
2018-09-23T00:52:42.353Z,9.60
2018-09-23T00:55:10.836Z,11.63
2018-09-23T00:57:38.669Z,10.87
2018-09-23T01:00:06.823Z,10.10
2018-09-23T01:02:34.674Z,12.00
2018-09-23T01:05:02.572Z,10.47
2018-09-23T01:07:30.514Z,12.10
2018-09-23T01:09:58.353Z,10.73
2018-09-23T01:12:26.244Z,10.23
2018-09-23T01:14:54.042Z,10.70
2018-09-23T01:17:21.984Z,10.87
2018-09-23T01:19:49.894Z,8.43
2018-09-23T01:22:17.739Z,11.60
2018-09-23T01:24:45.637Z,11.50
2018-09-23T01:27:13.672Z,10.93
2018-09-23T01:29:41.976Z,10.10
2018-09-23T01:32:10.048Z,12.50
2018-09-23T01:34:37.821Z,11.33
2018-09-23T01:37:05.827Z,10.00
2018-09-23T01:39:33.653Z,12.50
2018-09-23T01:42:01.879Z,8.60
2018-09-23T01:44:29.773Z,12.80
2018-09-23T01:46:57.745Z,12.47
2018-09-23T01:49:25.614Z,11.67
2018-09-23T01:51:53.487Z,11.63
2018-09-23T01:54:21.517Z,13.90
2018-09-23T01:56:49.408Z,13.33
2018-09-23T01:59:17.378Z,12.83
2018-09-23T02:01:45.183Z,13.40
2018-09-23T02:04:13.101Z,13.67
2018-09-23T02:06:41.030Z,12.50
2018-09-23T02:09:09.349Z,14.50
2018-09-23T02:11:37.177Z,14.30
2018-09-23T02:14:05.108Z,14.37
2018-09-23T02:16:33.020Z,11.70
2018-09-23T02:19:00.898Z,14.57
2018-09-23T02:21:28.808Z,14.23
2018-09-23T02:23:56.741Z,13.17
2018-09-23T02:26:24.560Z,14.43
2018-09-23T02:28:52.373Z,15.50
2018-09-23T02:31:20.270Z,11.10
2018-09-23T02:33:48.064Z,13.77
2018-09-23T02:36:15.916Z,13.20
2018-09-23T02:38:43.745Z,13.07
2018-09-23T02:41:11.686Z,14.70
2018-09-23T02:43:39.395Z,15.30
2018-09-23T02:46:07.320Z,14.90
2018-09-23T02:48:35.034Z,16.00
2018-09-23T02:51:02.972Z,15.00
2018-09-23T02:53:30.937Z,15.97
2018-09-23T02:55:59.112Z,14.50
2018-09-23T02:58:26.813Z,13.70
2018-09-23T03:00:54.586Z,16.63
2018-09-23T03:03:22.400Z,15.50
2018-09-23T03:05:50.313Z,15.70
2018-09-23T03:08:18.165Z,12.73
2018-09-23T03:10:46.014Z,18.40
2018-09-23T03:13:13.956Z,16.50
2018-09-23T03:15:41.904Z,17.57
2018-09-23T03:18:09.771Z,18.63
2018-09-23T03:20:37.615Z,17.63
2018-09-23T03:23:05.510Z,17.83
2018-09-23T03:25:33.350Z,17.77
2018-09-23T03:28:01.148Z,16.47
2018-09-23T03:30:29.012Z,16.43
2018-09-23T03:32:56.938Z,14.63
2018-09-23T03:35:24.739Z,15.83
2018-09-23T03:37:52.846Z,15.77
2018-09-23T03:40:20.729Z,16.00
2018-09-23T03:42:48.631Z,14.77
2018-09-23T03:45:16.354Z,15.60
2018-09-23T03:47:44.392Z,15.80
2018-09-23T03:50:12.229Z,15.07
2018-09-23T03:52:40.085Z,15.87
2018-09-23T03:55:07.849Z,16.37
2018-09-23T03:57:36.114Z,19.10
2018-09-23T04:00:04.622Z,16.40
2018-09-23T04:02:32.354Z,18.70
2018-09-23T04:05:00.141Z,17.00
2018-09-23T04:07:28.013Z,17.50
2018-09-23T04:09:55.845Z,17.13
2018-09-23T04:12:23.585Z,16.50
2018-09-23T04:14:51.454Z,17.23
2018-09-23T04:17:19.368Z,18.10
2018-09-23T04:19:47.231Z,16.37
2018-09-23T04:22:15.174Z,14.70
2018-09-23T04:24:43.015Z,18.20
2018-09-23T04:27:10.828Z,17.43
2018-09-23T04:29:38.839Z,15.50
2018-09-23T04:32:06.811Z,16.50
2018-09-23T04:34:34.683Z,17.30
2018-09-23T04:37:02.574Z,16.50
2018-09-23T04:39:30.411Z,14.17
2018-09-23T04:41:58.234Z,14.97
2018-09-23T04:44:25.960Z,17.50
2018-09-23T04:46:53.894Z,18.67
2018-09-23T04:49:21.924Z,15.43
2018-09-23T04:51:49.784Z,16.87
2018-09-23T04:54:17.476Z,16.03
2018-09-23T04:56:45.298Z,16.30
2018-09-23T04:59:13.499Z,15.57
2018-09-23T05:01:41.358Z,17.60
2018-09-23T05:04:09.240Z,14.90
2018-09-23T05:06:36.964Z,16.53
2018-09-23T05:09:06.728Z,12.37
2018-09-23T05:11:34.645Z,14.93
2018-09-23T05:14:02.550Z,15.20
2018-09-23T05:16:30.258Z,15.93
2018-09-23T05:18:58.343Z,16.27
2018-09-23T05:21:26.621Z,16.20
2018-09-23T05:23:54.441Z,15.90
2018-09-23T05:26:22.478Z,16.73
2018-09-23T05:28:50.400Z,16.40
2018-09-23T05:31:18.329Z,17.97
2018-09-23T05:33:46.152Z,17.50
2018-09-23T05:36:14.019Z,18.30
2018-09-23T05:38:42.682Z,16.83
2018-09-23T05:41:10.506Z,15.90
2018-09-23T05:43:39.287Z,14.50
2018-09-23T05:46:07.059Z,18.07
2018-09-23T05:48:34.978Z,17.30
2018-09-23T05:51:03.198Z,17.40
2018-09-23T05:53:31.007Z,15.30
2018-09-23T05:55:58.962Z,15.57
2018-09-23T05:58:26.717Z,18.40
2018-09-23T06:00:55.366Z,18.00
2018-09-23T06:03:23.071Z,18.90
2018-09-23T06:05:50.906Z,15.30
2018-09-23T06:08:18.648Z,19.00
2018-09-23T06:10:46.434Z,19.10
2018-09-23T06:13:14.256Z,19.03
2018-09-23T06:15:42.239Z,18.23
2018-09-23T06:18:10.006Z,18.53
2018-09-23T06:20:37.907Z,19.90
2018-09-23T06:23:05.642Z,19.33
2018-09-23T06:25:33.535Z,17.77
2018-09-23T06:28:01.372Z,18.67
2018-09-23T06:30:29.305Z,18.63
2018-09-23T06:32:57.044Z,18.80
2018-09-23T06:35:24.970Z,18.60
2018-09-23T06:37:52.833Z,17.50
2018-09-23T06:40:20.752Z,18.63
2018-09-23T06:42:48.608Z,17.23
2018-09-23T06:45:16.459Z,18.07
2018-09-23T06:47:44.066Z,19.17
2018-09-23T06:50:11.802Z,18.97
2018-09-23T06:52:39.594Z,19.47
2018-09-23T06:55:07.476Z,14.20
2018-09-23T06:57:35.334Z,16.47
2018-09-23T07:00:03.152Z,19.90
2018-09-23T07:02:31.295Z,21.07
2018-09-23T07:04:59.173Z,18.97
2018-09-23T07:07:26.981Z,20.27
2018-09-23T07:09:54.781Z,21.87
2018-09-23T07:12:22.660Z,19.67
2018-09-23T07:14:50.354Z,19.73
2018-09-23T07:17:18.278Z,19.40
2018-09-23T07:19:46.013Z,19.97
2018-09-23T07:22:13.808Z,16.03
2018-09-23T07:24:43.755Z,19.13
2018-09-23T07:27:11.501Z,18.97
2018-09-23T07:29:39.440Z,17.07
2018-09-23T07:32:07.875Z,19.03
2018-09-23T07:34:36.255Z,20.07
2018-09-23T07:37:04.275Z,18.33
2018-09-23T07:39:39.224Z,18.70
2018-09-23T07:42:07.208Z,20.90
2018-09-23T07:44:35.261Z,20.67
2018-09-23T07:47:03.219Z,18.53
2018-09-23T07:49:31.156Z,19.10
2018-09-23T07:51:59.883Z,19.47
2018-09-23T07:54:27.844Z,17.87
2018-09-23T07:56:55.618Z,20.43
2018-09-23T07:59:23.361Z,19.00
2018-09-23T08:01:51.945Z,20.63
2018-09-23T08:04:19.937Z,20.13
2018-09-23T08:06:47.834Z,18.40
2018-09-23T08:09:15.759Z,17.50
2018-09-23T08:11:43.456Z,19.40
2018-09-23T08:14:11.678Z,18.47
2018-09-23T08:16:40.109Z,17.30
2018-09-23T08:19:08.242Z,18.30
2018-09-23T08:21:36.458Z,18.60
2018-09-23T08:24:04.513Z,19.67
2018-09-23T08:26:32.491Z,21.03
2018-09-23T08:29:03.228Z,19.77
2018-09-23T08:31:31.582Z,20.20
2018-09-23T08:34:00.758Z,19.57
2018-09-23T08:36:28.607Z,19.07
2018-09-23T08:38:56.774Z,18.00
2018-09-23T08:41:24.773Z,17.10
2018-09-23T08:43:52.973Z,17.00
2018-09-23T08:46:21.609Z,17.33
2018-09-23T08:48:49.566Z,15.47
2018-09-23T08:51:17.669Z,16.90
2018-09-23T08:53:45.757Z,16.70
2018-09-23T08:56:13.527Z,16.50
2018-09-23T08:58:41.515Z,15.50
2018-09-23T09:01:09.303Z,13.93
2018-09-23T09:03:37.203Z,15.27
2018-09-23T09:06:07.758Z,15.50
2018-09-23T09:08:35.562Z,13.50
2018-09-23T09:11:03.476Z,11.43
2018-09-23T09:13:31.263Z,13.00
2018-09-23T09:15:59.114Z,12.93
2018-09-23T09:18:27.043Z,13.20
2018-09-23T09:20:54.879Z,12.03
2018-09-23T09:23:22.669Z,15.20
2018-09-23T09:25:50.452Z,12.87
2018-09-23T09:28:18.199Z,13.00
2018-09-23T09:30:46.009Z,11.67
2018-09-23T09:33:14.115Z,11.53
2018-09-23T09:35:41.929Z,11.17
2018-09-23T09:38:09.943Z,12.57
2018-09-23T09:40:37.683Z,11.40
2018-09-23T09:43:05.434Z,12.63
2018-09-23T09:45:33.642Z,13.20
2018-09-23T09:48:01.543Z,13.70
2018-09-23T09:50:29.385Z,12.70
2018-09-23T09:52:57.192Z,12.93
2018-09-23T09:55:24.958Z,13.87
2018-09-23T09:57:52.723Z,13.60
2018-09-23T10:00:26.075Z,12.27
2018-09-23T10:02:54.019Z,12.63
2018-09-23T10:05:21.881Z,12.37
2018-09-23T10:07:50.956Z,12.27
2018-09-23T10:10:19.234Z,12.07
2018-09-23T10:12:47.696Z,13.60
2018-09-23T10:15:15.694Z,10.83
2018-09-23T10:17:43.499Z,10.77
2018-09-23T10:20:11.216Z,10.70
2018-09-23T10:22:39.168Z,12.37
2018-09-23T10:25:07.502Z,13.00
2018-09-23T10:27:35.812Z,12.10
2018-09-23T10:30:04.394Z,12.83
2018-09-23T10:32:32.417Z,12.40
2018-09-23T10:35:00.307Z,11.93
2018-09-23T10:37:28.070Z,11.50
2018-09-23T10:42:30.456Z,12.27
2018-09-23T10:44:58.291Z,10.00
2018-09-23T10:47:26.060Z,12.10
2018-09-23T10:49:53.955Z,11.27
2018-09-23T10:57:22.923Z,9.97
